sensor_id;sensor_type;location;lat;lon;timestamp;pressure;altitude;pressure_sealevel;temperature;humidity
74542;BME280;63015;45.378;20.360;2023-11-19T00:00:07;101347.56;;;1.59;76.95
74542;BME280;63015;45.378;20.360;2023-11-19T00:02:11;101345.00;;;1.59;76.72
74542;BME280;63015;45.378;20.360;2023-11-19T00:04:12;101354.47;;;1.60;76.52
74542;BME280;63015;45.378;20.360;2023-11-19T00:06:14;101344.19;;;1.60;76.67
74542;BME280;63015;45.378;20.360;2023-11-19T00:08:14;101354.59;;;1.63;76.31
74542;BME280;63015;45.378;20.360;2023-11-19T00:10:15;101360.56;;;1.62;76.07
74542;BME280;63015;45.378;20.360;2023-11-19T00:12:18;101354.22;;;1.56;76.34
74542;BME280;63015;45.378;20.360;2023-11-19T00:14:19;101353.41;;;1.57;76.29
74542;BME280;63015;45.378;20.360;2023-11-19T00:16:20;101339.38;;;1.50;76.48
74542;BME280;63015;45.378;20.360;2023-11-19T00:18:20;101344.13;;;1.42;76.75
74542;BME280;63015;45.378;20.360;2023-11-19T00:20:21;101348.16;;;1.37;76.83
74542;BME280;63015;45.378;20.360;2023-11-19T00:22:24;101368.88;;;1.24;77.55
74542;BME280;63015;45.378;20.360;2023-11-19T00:24:26;101369.34;;;1.33;76.60
74542;BME280;63015;45.378;20.360;2023-11-19T00:26:26;101368.44;;;1.33;76.97
74542;BME280;63015;45.378;20.360;2023-11-19T00:28:27;101368.06;;;1.25;77.29
74542;BME280;63015;45.378;20.360;2023-11-19T00:30:29;101348.81;;;1.17;77.47
74542;BME280;63015;45.378;20.360;2023-11-19T00:32:32;101366.31;;;1.24;77.01
74542;BME280;63015;45.378;20.360;2023-11-19T00:34:34;101358.50;;;1.22;77.07
74542;BME280;63015;45.378;20.360;2023-11-19T00:36:34;101348.41;;;1.25;76.47
74542;BME280;63015;45.378;20.360;2023-11-19T00:38:35;101342.22;;;1.22;77.24
74542;BME280;63015;45.378;20.360;2023-11-19T00:40:36;101338.34;;;1.30;76.54
74542;BME280;63015;45.378;20.360;2023-11-19T00:42:36;101346.72;;;1.26;76.82
74542;BME280;63015;45.378;20.360;2023-11-19T00:44:39;101349.34;;;1.27;76.69
74542;BME280;63015;45.378;20.360;2023-11-19T00:46:39;101358.28;;;1.34;76.35
74542;BME280;63015;45.378;20.360;2023-11-19T00:48:40;101359.31;;;1.38;75.89
74542;BME280;63015;45.378;20.360;2023-11-19T00:50:40;101354.16;;;1.38;75.98
74542;BME280;63015;45.378;20.360;2023-11-19T00:52:44;101351.31;;;1.31;76.29
74542;BME280;63015;45.378;20.360;2023-11-19T00:54:45;101344.53;;;1.34;76.07
74542;BME280;63015;45.378;20.360;2023-11-19T00:56:45;101333.31;;;1.31;76.12
74542;BME280;63015;45.378;20.360;2023-11-19T00:58:46;101334.19;;;1.32;76.19
74542;BME280;63015;45.378;20.360;2023-11-19T01:00:46;101335.00;;;1.31;76.00
74542;BME280;63015;45.378;20.360;2023-11-19T01:02:47;101342.63;;;1.29;75.89
74542;BME280;63015;45.378;20.360;2023-11-19T01:04:50;101348.56;;;1.28;75.91
74542;BME280;63015;45.378;20.360;2023-11-19T01:06:50;101355.31;;;1.26;76.13
74542;BME280;63015;45.378;20.360;2023-11-19T01:08:51;101356.50;;;1.17;76.97
74542;BME280;63015;45.378;20.360;2023-11-19T01:10:53;101359.47;;;1.08;77.20
74542;BME280;63015;45.378;20.360;2023-11-19T01:12:54;101352.75;;;1.10;77.17
74542;BME280;63015;45.378;20.360;2023-11-19T01:14:55;101346.88;;;0.96;77.79
74542;BME280;63015;45.378;20.360;2023-11-19T01:16:56;101344.25;;;0.94;77.77
74542;BME280;63015;45.378;20.360;2023-11-19T01:18:57;101343.13;;;1.06;77.28
74542;BME280;63015;45.378;20.360;2023-11-19T01:20:58;101337.16;;;1.07;77.13
74542;BME280;63015;45.378;20.360;2023-11-19T01:22:58;101325.22;;;1.07;76.98
74542;BME280;63015;45.378;20.360;2023-11-19T01:24:59;101323.47;;;1.06;77.10
74542;BME280;63015;45.378;20.360;2023-11-19T01:26:59;101333.25;;;0.97;78.01
74542;BME280;63015;45.378;20.360;2023-11-19T01:29:00;101325.97;;;1.05;77.55
74542;BME280;63015;45.378;20.360;2023-11-19T01:31:01;101332.34;;;1.13;76.75
74542;BME280;63015;45.378;20.360;2023-11-19T01:33:02;101338.28;;;1.12;77.05
74542;BME280;63015;45.378;20.360;2023-11-19T01:35:03;101344.16;;;1.09;77.28
74542;BME280;63015;45.378;20.360;2023-11-19T01:37:04;101334.78;;;1.10;77.49
74542;BME280;63015;45.378;20.360;2023-11-19T01:39:06;101329.31;;;1.04;77.81
74542;BME280;63015;45.378;20.360;2023-11-19T01:41:06;101324.97;;;1.03;77.94
74542;BME280;63015;45.378;20.360;2023-11-19T01:43:07;101324.34;;;1.07;77.88
74542;BME280;63015;45.378;20.360;2023-11-19T01:45:39;101319.69;;;1.16;77.05
74542;BME280;63015;45.378;20.360;2023-11-19T01:47:40;101322.34;;;1.18;77.56
74542;BME280;63015;45.378;20.360;2023-11-19T01:49:41;101326.75;;;1.20;76.80
74542;BME280;63015;45.378;20.360;2023-11-19T01:51:42;101330.19;;;1.21;76.83
74542;BME280;63015;45.378;20.360;2023-11-19T01:53:43;101331.31;;;1.26;76.53
74542;BME280;63015;45.378;20.360;2023-11-19T01:55:46;101321.94;;;1.26;76.67
74542;BME280;63015;45.378;20.360;2023-11-19T01:57:49;101326.16;;;1.26;76.63
74542;BME280;63015;45.378;20.360;2023-11-19T01:59:51;101325.38;;;1.27;76.37
74542;BME280;63015;45.378;20.360;2023-11-19T02:01:54;101319.25;;;1.25;76.16
74542;BME280;63015;45.378;20.360;2023-11-19T02:03:54;101317.22;;;1.18;77.19
74542;BME280;63015;45.378;20.360;2023-11-19T02:05:56;101312.13;;;1.19;76.73
74542;BME280;63015;45.378;20.360;2023-11-19T02:07:56;101314.72;;;1.19;76.94
74542;BME280;63015;45.378;20.360;2023-11-19T02:09:57;101320.56;;;1.17;77.30
74542;BME280;63015;45.378;20.360;2023-11-19T02:12:00;101328.41;;;1.20;77.08
74542;BME280;63015;45.378;20.360;2023-11-19T02:14:01;101330.91;;;1.18;76.89
74542;BME280;63015;45.378;20.360;2023-11-19T02:16:04;101329.31;;;1.20;76.80
74542;BME280;63015;45.378;20.360;2023-11-19T02:18:20;101333.72;;;1.23;76.95
74542;BME280;63015;45.378;20.360;2023-11-19T02:20:22;101336.13;;;1.20;77.33
74542;BME280;63015;45.378;20.360;2023-11-19T02:22:22;101341.19;;;1.18;77.35
74542;BME280;63015;45.378;20.360;2023-11-19T02:24:25;101336.13;;;1.20;77.32
74542;BME280;63015;45.378;20.360;2023-11-19T02:26:45;101337.50;;;1.13;77.63
74542;BME280;63015;45.378;20.360;2023-11-19T02:28:48;101338.00;;;1.06;77.91
74542;BME280;63015;45.378;20.360;2023-11-19T02:30:48;101338.47;;;1.15;76.80
74542;BME280;63015;45.378;20.360;2023-11-19T02:32:49;101338.41;;;1.13;77.35
74542;BME280;63015;45.378;20.360;2023-11-19T02:34:49;101331.75;;;1.01;78.07
74542;BME280;63015;45.378;20.360;2023-11-19T02:36:50;101332.13;;;1.08;77.54
74542;BME280;63015;45.378;20.360;2023-11-19T02:38:51;101336.44;;;1.09;77.51
74542;BME280;63015;45.378;20.360;2023-11-19T02:40:52;101340.84;;;1.12;76.64
74542;BME280;63015;45.378;20.360;2023-11-19T02:42:53;101340.00;;;1.11;77.01
74542;BME280;63015;45.378;20.360;2023-11-19T02:44:55;101328.91;;;1.12;76.91
74542;BME280;63015;45.378;20.360;2023-11-19T02:46:56;101330.59;;;1.12;76.95
74542;BME280;63015;45.378;20.360;2023-11-19T02:48:59;101329.78;;;1.13;76.93
74542;BME280;63015;45.378;20.360;2023-11-19T02:51:01;101329.72;;;1.11;77.09
74542;BME280;63015;45.378;20.360;2023-11-19T02:53:03;101333.88;;;1.09;77.34
74542;BME280;63015;45.378;20.360;2023-11-19T02:55:04;101340.00;;;1.11;76.95
74542;BME280;63015;45.378;20.360;2023-11-19T02:57:09;101336.38;;;1.08;77.10
74542;BME280;63015;45.378;20.360;2023-11-19T02:59:10;101331.03;;;1.03;77.21
74542;BME280;63015;45.378;20.360;2023-11-19T03:01:27;101327.00;;;1.08;77.28
74542;BME280;63015;45.378;20.360;2023-11-19T03:03:30;101326.34;;;1.12;77.57
74542;BME280;63015;45.378;20.360;2023-11-19T03:05:38;101324.66;;;1.13;77.22
74542;BME280;63015;45.378;20.360;2023-11-19T03:07:42;101309.31;;;1.14;76.71
74542;BME280;63015;45.378;20.360;2023-11-19T03:09:43;101318.00;;;1.17;76.88
74542;BME280;63015;45.378;20.360;2023-11-19T03:11:44;101319.84;;;1.19;76.47
74542;BME280;63015;45.378;20.360;2023-11-19T03:13:45;101318.97;;;1.19;76.52
74542;BME280;63015;45.378;20.360;2023-11-19T03:15:46;101320.50;;;1.15;76.95
74542;BME280;63015;45.378;20.360;2023-11-19T03:17:47;101325.69;;;1.17;76.56
74542;BME280;63015;45.378;20.360;2023-11-19T03:19:48;101323.59;;;1.09;76.93
74542;BME280;63015;45.378;20.360;2023-11-19T03:21:49;101334.72;;;1.08;76.88
74542;BME280;63015;45.378;20.360;2023-11-19T03:23:50;101329.47;;;1.07;77.13
74542;BME280;63015;45.378;20.360;2023-11-19T03:25:51;101335.91;;;0.98;77.08
74542;BME280;63015;45.378;20.360;2023-11-19T03:27:52;101340.53;;;0.89;78.14
74542;BME280;63015;45.378;20.360;2023-11-19T03:29:53;101335.75;;;0.95;77.27
74542;BME280;63015;45.378;20.360;2023-11-19T03:31:54;101333.41;;;1.00;77.14
74542;BME280;63015;45.378;20.360;2023-11-19T03:33:54;101328.03;;;0.95;77.43
74542;BME280;63015;45.378;20.360;2023-11-19T03:35:58;101327.31;;;0.98;77.41
74542;BME280;63015;45.378;20.360;2023-11-19T03:37:58;101330.84;;;1.00;77.66
74542;BME280;63015;45.378;20.360;2023-11-19T03:39:59;101331.75;;;1.01;77.65
74542;BME280;63015;45.378;20.360;2023-11-19T03:42:00;101337.16;;;1.07;77.06
74542;BME280;63015;45.378;20.360;2023-11-19T03:44:01;101333.81;;;1.08;76.62
74542;BME280;63015;45.378;20.360;2023-11-19T03:46:01;101332.03;;;1.07;76.79
74542;BME280;63015;45.378;20.360;2023-11-19T03:48:02;101325.88;;;1.03;77.32
74542;BME280;63015;45.378;20.360;2023-11-19T03:50:04;101330.75;;;0.98;77.23
74542;BME280;63015;45.378;20.360;2023-11-19T03:52:05;101324.34;;;0.90;77.96
74542;BME280;63015;45.378;20.360;2023-11-19T03:54:05;101325.16;;;0.89;77.76
74542;BME280;63015;45.378;20.360;2023-11-19T03:56:07;101330.75;;;0.82;78.49
74542;BME280;63015;45.378;20.360;2023-11-19T03:58:10;101320.56;;;0.84;78.48
74542;BME280;63015;45.378;20.360;2023-11-19T04:00:12;101323.44;;;0.90;77.89
74542;BME280;63015;45.378;20.360;2023-11-19T04:02:15;101332.19;;;0.93;77.80
74542;BME280;63015;45.378;20.360;2023-11-19T04:04:15;101333.97;;;0.94;77.67
74542;BME280;63015;45.378;20.360;2023-11-19T04:06:16;101328.13;;;0.97;77.40
74542;BME280;63015;45.378;20.360;2023-11-19T04:08:16;101321.28;;;0.97;77.69
74542;BME280;63015;45.378;20.360;2023-11-19T04:10:17;101315.28;;;0.97;77.49
74542;BME280;63015;45.378;20.360;2023-11-19T04:12:18;101312.47;;;0.92;77.75
74542;BME280;63015;45.378;20.360;2023-11-19T04:14:20;101309.97;;;0.94;77.59
74542;BME280;63015;45.378;20.360;2023-11-19T04:16:26;101303.25;;;0.96;76.90
74542;BME280;63015;45.378;20.360;2023-11-19T04:18:29;101308.13;;;0.91;77.62
74542;BME280;63015;45.378;20.360;2023-11-19T04:20:29;101302.91;;;0.90;77.91
74542;BME280;63015;45.378;20.360;2023-11-19T04:22:31;101295.22;;;0.90;77.58
74542;BME280;63015;45.378;20.360;2023-11-19T04:24:32;101299.41;;;0.88;77.96
74542;BME280;63015;45.378;20.360;2023-11-19T04:26:33;101296.84;;;0.88;77.68
74542;BME280;63015;45.378;20.360;2023-11-19T04:28:34;101285.69;;;0.87;77.68
74542;BME280;63015;45.378;20.360;2023-11-19T04:30:35;101296.03;;;0.89;77.40
74542;BME280;63015;45.378;20.360;2023-11-19T04:32:36;101301.88;;;0.86;77.82
74542;BME280;63015;45.378;20.360;2023-11-19T04:34:36;101293.69;;;0.77;78.46
74542;BME280;63015;45.378;20.360;2023-11-19T04:36:37;101288.56;;;0.77;78.23
74542;BME280;63015;45.378;20.360;2023-11-19T04:38:39;101289.94;;;0.70;78.33
74542;BME280;63015;45.378;20.360;2023-11-19T04:40:40;101291.06;;;0.75;78.44
74542;BME280;63015;45.378;20.360;2023-11-19T04:42:40;101296.19;;;0.75;78.29
74542;BME280;63015;45.378;20.360;2023-11-19T04:44:43;101300.34;;;0.73;78.24
74542;BME280;63015;45.378;20.360;2023-11-19T04:46:44;101297.88;;;0.75;78.07
74542;BME280;63015;45.378;20.360;2023-11-19T04:48:45;101282.56;;;0.76;78.13
74542;BME280;63015;45.378;20.360;2023-11-19T04:50:45;101280.00;;;0.76;78.33
74542;BME280;63015;45.378;20.360;2023-11-19T04:52:46;101287.50;;;0.73;78.94
74542;BME280;63015;45.378;20.360;2023-11-19T04:54:47;101288.41;;;0.74;78.54
74542;BME280;63015;45.378;20.360;2023-11-19T04:56:48;101286.78;;;0.76;78.81
74542;BME280;63015;45.378;20.360;2023-11-19T04:58:49;101271.66;;;0.80;78.00
74542;BME280;63015;45.378;20.360;2023-11-19T05:00:49;101262.25;;;0.81;78.50
74542;BME280;63015;45.378;20.360;2023-11-19T05:02:50;101261.31;;;0.79;78.78
74542;BME280;63015;45.378;20.360;2023-11-19T05:04:50;101263.56;;;0.73;79.19
74542;BME280;63015;45.378;20.360;2023-11-19T05:06:51;101252.56;;;0.59;80.81
74542;BME280;63015;45.378;20.360;2023-11-19T05:08:51;101251.53;;;0.72;79.35
74542;BME280;63015;45.378;20.360;2023-11-19T05:10:52;101249.94;;;0.74;79.64
74542;BME280;63015;45.378;20.360;2023-11-19T05:12:53;101264.75;;;0.79;79.18
74542;BME280;63015;45.378;20.360;2023-11-19T05:14:56;101263.22;;;0.83;78.86
74542;BME280;63015;45.378;20.360;2023-11-19T05:16:56;101263.38;;;0.86;78.53
74542;BME280;63015;45.378;20.360;2023-11-19T05:18:57;101250.78;;;0.91;78.46
74542;BME280;63015;45.378;20.360;2023-11-19T05:20:58;101251.53;;;0.88;78.59
74542;BME280;63015;45.378;20.360;2023-11-19T05:22:59;101259.38;;;0.91;78.60
74542;BME280;63015;45.378;20.360;2023-11-19T05:25:00;101256.78;;;0.91;78.66
74542;BME280;63015;45.378;20.360;2023-11-19T05:27:03;101258.50;;;0.91;78.56
74542;BME280;63015;45.378;20.360;2023-11-19T05:29:04;101252.38;;;0.89;78.50
74542;BME280;63015;45.378;20.360;2023-11-19T05:31:05;101253.28;;;0.89;78.31
74542;BME280;63015;45.378;20.360;2023-11-19T05:33:06;101251.28;;;0.84;78.62
74542;BME280;63015;45.378;20.360;2023-11-19T05:35:08;101237.66;;;0.85;78.13
74542;BME280;63015;45.378;20.360;2023-11-19T05:37:08;101235.00;;;0.83;78.61
74542;BME280;63015;45.378;20.360;2023-11-19T05:39:11;101222.19;;;0.83;78.67
74542;BME280;63015;45.378;20.360;2023-11-19T05:41:11;101213.69;;;0.84;78.40
74542;BME280;63015;45.378;20.360;2023-11-19T05:43:12;101211.13;;;0.84;77.91
74542;BME280;63015;45.378;20.360;2023-11-19T05:45:12;101216.25;;;0.84;77.62
74542;BME280;63015;45.378;20.360;2023-11-19T05:47:13;101219.34;;;0.78;78.21
74542;BME280;63015;45.378;20.360;2023-11-19T05:49:14;101215.53;;;0.70;78.65
74542;BME280;63015;45.378;20.360;2023-11-19T05:51:14;101220.97;;;0.76;78.18
74542;BME280;63015;45.378;20.360;2023-11-19T05:53:18;101209.34;;;0.67;78.22
74542;BME280;63015;45.378;20.360;2023-11-19T05:55:18;101218.34;;;0.75;77.80
74542;BME280;63015;45.378;20.360;2023-11-19T05:57:19;101230.34;;;0.76;77.90
74542;BME280;63015;45.378;20.360;2023-11-19T05:59:24;101224.66;;;0.65;78.31
74542;BME280;63015;45.378;20.360;2023-11-19T06:01:24;101232.91;;;0.76;77.54
74542;BME280;63015;45.378;20.360;2023-11-19T06:03:25;101243.19;;;0.76;77.85
74542;BME280;63015;45.378;20.360;2023-11-19T06:05:25;101248.16;;;0.73;77.96
74542;BME280;63015;45.378;20.360;2023-11-19T06:07:26;101253.63;;;0.79;77.70
74542;BME280;63015;45.378;20.360;2023-11-19T06:09:27;101247.19;;;0.87;77.47
74542;BME280;63015;45.378;20.360;2023-11-19T06:11:28;101249.59;;;0.84;77.94
74542;BME280;63015;45.378;20.360;2023-11-19T06:13:29;101244.78;;;0.90;77.76
74542;BME280;63015;45.378;20.360;2023-11-19T06:15:31;101250.72;;;1.06;77.58
74542;BME280;63015;45.378;20.360;2023-11-19T06:17:33;101263.34;;;1.19;77.30
74542;BME280;63015;45.378;20.360;2023-11-19T06:19:34;101276.66;;;1.28;77.05
74542;BME280;63015;45.378;20.360;2023-11-19T06:21:34;101267.88;;;1.41;76.99
74542;BME280;63015;45.378;20.360;2023-11-19T06:23:37;101271.38;;;1.60;76.69
74542;BME280;63015;45.378;20.360;2023-11-19T06:25:37;101278.19;;;1.77;76.11
74542;BME280;63015;45.378;20.360;2023-11-19T06:27:38;101279.38;;;1.84;75.33
74542;BME280;63015;45.378;20.360;2023-11-19T06:29:39;101280.03;;;1.98;75.51
74542;BME280;63015;45.378;20.360;2023-11-19T06:31:42;101271.38;;;2.14;75.57
74542;BME280;63015;45.378;20.360;2023-11-19T06:33:42;101270.25;;;2.27;74.75
74542;BME280;63015;45.378;20.360;2023-11-19T06:35:43;101270.63;;;2.35;74.46
74542;BME280;63015;45.378;20.360;2023-11-19T06:37:44;101264.38;;;2.29;73.58
74542;BME280;63015;45.378;20.360;2023-11-19T06:39:44;101263.44;;;2.47;74.25
74542;BME280;63015;45.378;20.360;2023-11-19T06:41:46;101263.22;;;2.60;73.40
74542;BME280;63015;45.378;20.360;2023-11-19T06:43:46;101259.88;;;2.83;73.40
74542;BME280;63015;45.378;20.360;2023-11-19T06:45:47;101268.56;;;2.85;72.34
74542;BME280;63015;45.378;20.360;2023-11-19T06:47:48;101267.66;;;3.04;72.74
74542;BME280;63015;45.378;20.360;2023-11-19T06:49:48;101275.72;;;3.11;71.79
74542;BME280;63015;45.378;20.360;2023-11-19T06:51:49;101273.28;;;3.15;71.65
74542;BME280;63015;45.378;20.360;2023-11-19T06:53:50;101267.56;;;3.41;71.59
74542;BME280;63015;45.378;20.360;2023-11-19T06:55:50;101267.97;;;3.31;70.60
74542;BME280;63015;45.378;20.360;2023-11-19T06:57:51;101256.81;;;3.52;71.15
74542;BME280;63015;45.378;20.360;2023-11-19T06:59:52;101251.81;;;3.56;70.54
74542;BME280;63015;45.378;20.360;2023-11-19T07:01:52;101246.28;;;3.47;70.42
74542;BME280;63015;45.378;20.360;2023-11-19T07:03:53;101249.06;;;3.52;70.88
74542;BME280;63015;45.378;20.360;2023-11-19T07:05:53;101252.88;;;3.61;70.15
74542;BME280;63015;45.378;20.360;2023-11-19T07:07:56;101254.91;;;3.69;70.26
74542;BME280;63015;45.378;20.360;2023-11-19T07:09:56;101262.69;;;3.70;70.29
74542;BME280;63015;45.378;20.360;2023-11-19T07:11:57;101269.38;;;3.65;70.14
74542;BME280;63015;45.378;20.360;2023-11-19T07:13:57;101271.44;;;3.74;69.84
74542;BME280;63015;45.378;20.360;2023-11-19T07:15:58;101267.41;;;3.81;69.36
74542;BME280;63015;45.378;20.360;2023-11-19T07:17:59;101258.34;;;3.90;69.50
74542;BME280;63015;45.378;20.360;2023-11-19T07:19:59;101259.56;;;4.00;68.87
74542;BME280;63015;45.378;20.360;2023-11-19T07:22:00;101256.25;;;4.03;68.89
74542;BME280;63015;45.378;20.360;2023-11-19T07:24:02;101249.75;;;4.13;68.43
74542;BME280;63015;45.378;20.360;2023-11-19T07:26:06;101257.78;;;4.20;68.53
74542;BME280;63015;45.378;20.360;2023-11-19T07:28:08;101258.41;;;4.37;68.52
74542;BME280;63015;45.378;20.360;2023-11-19T07:30:10;101267.59;;;4.29;68.17
74542;BME280;63015;45.378;20.360;2023-11-19T07:32:11;101262.44;;;4.29;67.42
74542;BME280;63015;45.378;20.360;2023-11-19T07:34:13;101267.03;;;4.38;67.20
74542;BME280;63015;45.378;20.360;2023-11-19T07:36:14;101256.25;;;4.25;68.00
74542;BME280;63015;45.378;20.360;2023-11-19T07:38:15;101257.66;;;4.40;67.90
74542;BME280;63015;45.378;20.360;2023-11-19T07:40:15;101252.63;;;4.67;68.19
74542;BME280;63015;45.378;20.360;2023-11-19T07:42:16;101259.22;;;4.59;67.93
74542;BME280;63015;45.378;20.360;2023-11-19T07:44:16;101259.03;;;4.54;67.08
74542;BME280;63015;45.378;20.360;2023-11-19T07:46:17;101253.63;;;4.71;67.49
74542;BME280;63015;45.378;20.360;2023-11-19T07:48:19;101241.81;;;4.77;67.12
74542;BME280;63015;45.378;20.360;2023-11-19T07:50:23;101247.31;;;4.87;67.45
74542;BME280;63015;45.378;20.360;2023-11-19T07:52:25;101248.56;;;4.74;66.43
74542;BME280;63015;45.378;20.360;2023-11-19T07:54:26;101245.06;;;4.96;67.27
74542;BME280;63015;45.378;20.360;2023-11-19T07:56:26;101250.91;;;4.92;66.41
74542;BME280;63015;45.378;20.360;2023-11-19T07:58:27;101258.94;;;5.00;67.15
74542;BME280;63015;45.378;20.360;2023-11-19T08:00:28;101260.97;;;5.08;67.24
74542;BME280;63015;45.378;20.360;2023-11-19T08:02:29;101258.44;;;5.10;67.20
74542;BME280;63015;45.378;20.360;2023-11-19T08:04:29;101260.97;;;4.84;66.73
74542;BME280;63015;45.378;20.360;2023-11-19T08:06:30;101257.34;;;5.03;67.08
74542;BME280;63015;45.378;20.360;2023-11-19T08:08:30;101240.84;;;5.24;66.38
74542;BME280;63015;45.378;20.360;2023-11-19T08:10:32;101231.66;;;5.32;66.85
74542;BME280;63015;45.378;20.360;2023-11-19T08:12:33;101235.72;;;5.25;66.51
74542;BME280;63015;45.378;20.360;2023-11-19T08:14:35;101235.56;;;5.21;66.53
74542;BME280;63015;45.378;20.360;2023-11-19T08:16:39;101232.38;;;5.54;66.47
74542;BME280;63015;45.378;20.360;2023-11-19T08:18:42;101242.53;;;5.49;66.15
74542;BME280;63015;45.378;20.360;2023-11-19T08:20:43;101239.69;;;5.67;66.16
74542;BME280;63015;45.378;20.360;2023-11-19T08:22:45;101234.59;;;5.70;65.46
74542;BME280;63015;45.378;20.360;2023-11-19T08:24:45;101230.22;;;5.95;65.59
74542;BME280;63015;45.378;20.360;2023-11-19T08:26:46;101232.66;;;5.90;65.15
74542;BME280;63015;45.378;20.360;2023-11-19T08:28:46;101227.63;;;5.95;64.59
74542;BME280;63015;45.378;20.360;2023-11-19T08:30:47;101221.50;;;6.20;65.17
74542;BME280;63015;45.378;20.360;2023-11-19T08:32:48;101219.28;;;6.04;63.80
74542;BME280;63015;45.378;20.360;2023-11-19T08:34:49;101214.56;;;6.19;64.30
74542;BME280;63015;45.378;20.360;2023-11-19T08:36:52;101221.09;;;6.35;63.60
74542;BME280;63015;45.378;20.360;2023-11-19T08:38:56;101216.81;;;6.37;63.73
74542;BME280;63015;45.378;20.360;2023-11-19T08:40:56;101228.59;;;6.56;63.39
74542;BME280;63015;45.378;20.360;2023-11-19T08:43:01;101226.47;;;6.73;62.83
74542;BME280;63015;45.378;20.360;2023-11-19T08:45:02;101218.97;;;6.52;62.84
74542;BME280;63015;45.378;20.360;2023-11-19T08:47:02;101228.03;;;6.68;62.00
74542;BME280;63015;45.378;20.360;2023-11-19T08:49:03;101226.81;;;6.55;61.72
74542;BME280;63015;45.378;20.360;2023-11-19T08:51:04;101217.69;;;6.68;61.86
74542;BME280;63015;45.378;20.360;2023-11-19T08:53:05;101221.41;;;6.78;62.84
74542;BME280;63015;45.378;20.360;2023-11-19T08:55:07;101217.03;;;6.75;61.54
74542;BME280;63015;45.378;20.360;2023-11-19T08:57:07;101221.44;;;6.80;60.13
74542;BME280;63015;45.378;20.360;2023-11-19T08:59:09;101212.34;;;6.94;61.46
74542;BME280;63015;45.378;20.360;2023-11-19T09:01:09;101200.72;;;7.12;61.26
74542;BME280;63015;45.378;20.360;2023-11-19T09:03:10;101189.41;;;7.10;60.62
74542;BME280;63015;45.378;20.360;2023-11-19T09:05:10;101190.53;;;7.19;60.26
74542;BME280;63015;45.378;20.360;2023-11-19T09:07:12;101190.25;;;7.42;60.62
74542;BME280;63015;45.378;20.360;2023-11-19T09:09:12;101180.13;;;7.54;60.25
74542;BME280;63015;45.378;20.360;2023-11-19T09:11:14;101177.44;;;7.88;60.61
74542;BME280;63015;45.378;20.360;2023-11-19T09:13:14;101188.03;;;7.97;60.02
74542;BME280;63015;45.378;20.360;2023-11-19T09:15:15;101186.66;;;7.75;59.02
74542;BME280;63015;45.378;20.360;2023-11-19T09:17:16;101190.66;;;7.61;58.62
74542;BME280;63015;45.378;20.360;2023-11-19T09:19:18;101180.06;;;7.51;59.03
74542;BME280;63015;45.378;20.360;2023-11-19T09:21:18;101185.44;;;7.59;59.27
74542;BME280;63015;45.378;20.360;2023-11-19T09:23:19;101177.75;;;7.64;58.26
74542;BME280;63015;45.378;20.360;2023-11-19T09:25:19;101171.66;;;8.00;58.41
74542;BME280;63015;45.378;20.360;2023-11-19T09:27:20;101164.50;;;7.89;58.01
74542;BME280;63015;45.378;20.360;2023-11-19T09:29:21;101165.38;;;7.90;57.64
74542;BME280;63015;45.378;20.360;2023-11-19T09:31:21;101170.78;;;8.01;56.95
74542;BME280;63015;45.378;20.360;2023-11-19T09:33:22;101174.44;;;8.07;57.73
74542;BME280;63015;45.378;20.360;2023-11-19T09:35:22;101167.47;;;8.06;57.39
74542;BME280;63015;45.378;20.360;2023-11-19T09:37:23;101159.22;;;8.26;57.53
74542;BME280;63015;45.378;20.360;2023-11-19T09:39:24;101170.44;;;8.25;57.26
74542;BME280;63015;45.378;20.360;2023-11-19T09:41:26;101168.03;;;8.34;56.71
74542;BME280;63015;45.378;20.360;2023-11-19T09:43:28;101170.75;;;8.40;56.71
74542;BME280;63015;45.378;20.360;2023-11-19T09:45:32;101172.38;;;8.35;56.25
74542;BME280;63015;45.378;20.360;2023-11-19T09:47:37;101176.44;;;8.22;57.68
74542;BME280;63015;45.378;20.360;2023-11-19T09:49:37;101185.47;;;8.40;57.83
74542;BME280;63015;45.378;20.360;2023-11-19T09:51:39;101181.34;;;8.50;57.21
74542;BME280;63015;45.378;20.360;2023-11-19T09:53:39;101172.88;;;8.59;56.98
74542;BME280;63015;45.378;20.360;2023-11-19T09:55:40;101152.84;;;8.53;55.62
74542;BME280;63015;45.378;20.360;2023-11-19T09:57:42;101151.34;;;8.64;56.29
74542;BME280;63015;45.378;20.360;2023-11-19T09:59:44;101151.00;;;8.47;56.34
74542;BME280;63015;45.378;20.360;2023-11-19T10:01:47;101123.97;;;8.37;56.04
74542;BME280;63015;45.378;20.360;2023-11-19T10:03:50;101109.56;;;8.55;56.99
74542;BME280;63015;45.378;20.360;2023-11-19T10:05:57;101090.34;;;8.45;56.27
74542;BME280;63015;45.378;20.360;2023-11-19T10:07:58;101090.41;;;8.47;56.32
74542;BME280;63015;45.378;20.360;2023-11-19T10:10:00;101079.88;;;8.42;55.74
74542;BME280;63015;45.378;20.360;2023-11-19T10:12:01;101089.09;;;8.26;55.37
74542;BME280;63015;45.378;20.360;2023-11-19T10:14:02;101079.13;;;8.46;56.27
74542;BME280;63015;45.378;20.360;2023-11-19T10:16:13;101079.72;;;8.34;55.46
74542;BME280;63015;45.378;20.360;2023-11-19T10:18:14;101081.94;;;8.59;55.84
74542;BME280;63015;45.378;20.360;2023-11-19T10:20:15;101085.66;;;8.73;55.34
74542;BME280;63015;45.378;20.360;2023-11-19T10:22:16;101078.09;;;8.87;55.10
74542;BME280;63015;45.378;20.360;2023-11-19T10:24:31;101064.25;;;8.88;54.40
74542;BME280;63015;45.378;20.360;2023-11-19T10:26:32;101069.81;;;9.10;55.16
74542;BME280;63015;45.378;20.360;2023-11-19T10:28:40;101067.78;;;8.92;53.41
74542;BME280;63015;45.378;20.360;2023-11-19T10:30:44;101062.88;;;9.12;53.75
74542;BME280;63015;45.378;20.360;2023-11-19T10:32:45;101048.22;;;9.17;54.92
74542;BME280;63015;45.378;20.360;2023-11-19T10:34:45;101049.94;;;9.13;53.79